sensor_id;sensor_type;location;lat;lon;timestamp;P1;durP1;ratioP1;P2;durP2;ratioP2
54575;SDS011;40472;53.486;14.542;2023-02-28T00:00:28;15.13;;;5.57;;
54575;SDS011;40472;53.486;14.542;2023-02-28T00:02:54;18.08;;;6.38;;
54575;SDS011;40472;53.486;14.542;2023-02-28T00:05:22;14.77;;;4.93;;
54575;SDS011;40472;53.486;14.542;2023-02-28T00:07:49;12.73;;;5.47;;
54575;SDS011;40472;53.486;14.542;2023-02-28T00:10:16;13.07;;;5.82;;
54575;SDS011;40472;53.486;14.542;2023-02-28T00:12:48;12.57;;;6.22;;
54575;SDS011;40472;53.486;14.542;2023-02-28T00:15:15;19.65;;;6.53;;
54575;SDS011;40472;53.486;14.542;2023-02-28T00:17:41;16.00;;;5.72;;
54575;SDS011;40472;53.486;14.542;2023-02-28T00:20:08;12.15;;;4.85;;
54575;SDS011;40472;53.486;14.542;2023-02-28T00:22:36;13.05;;;6.05;;
54575;SDS011;40472;53.486;14.542;2023-02-28T00:25:03;12.55;;;5.47;;
54575;SDS011;40472;53.486;14.542;2023-02-28T00:27:29;16.17;;;6.43;;
54575;SDS011;40472;53.486;14.542;2023-02-28T00:29:55;10.50;;;5.30;;
54575;SDS011;40472;53.486;14.542;2023-02-28T00:32:21;13.68;;;5.03;;
54575;SDS011;40472;53.486;14.542;2023-02-28T00:34:47;20.02;;;5.68;;
54575;SDS011;40472;53.486;14.542;2023-02-28T00:37:12;9.65;;;5.00;;
54575;SDS011;40472;53.486;14.542;2023-02-28T00:39:38;16.98;;;5.95;;
54575;SDS011;40472;53.486;14.542;2023-02-28T00:42:05;10.73;;;5.10;;
54575;SDS011;40472;53.486;14.542;2023-02-28T00:44:32;15.30;;;5.25;;
54575;SDS011;40472;53.486;14.542;2023-02-28T00:46:58;14.45;;;5.40;;
54575;SDS011;40472;53.486;14.542;2023-02-28T00:49:25;15.50;;;5.13;;
54575;SDS011;40472;53.486;14.542;2023-02-28T00:51:52;15.63;;;5.40;;
54575;SDS011;40472;53.486;14.542;2023-02-28T00:54:20;14.98;;;5.85;;
54575;SDS011;40472;53.486;14.542;2023-02-28T00:56:47;13.75;;;6.05;;
54575;SDS011;40472;53.486;14.542;2023-02-28T00:59:13;14.57;;;5.60;;
54575;SDS011;40472;53.486;14.542;2023-02-28T01:01:40;17.05;;;6.45;;
54575;SDS011;40472;53.486;14.542;2023-02-28T01:04:07;12.23;;;5.15;;
54575;SDS011;40472;53.486;14.542;2023-02-28T01:06:33;19.95;;;6.22;;
54575;SDS011;40472;53.486;14.542;2023-02-28T01:08:59;14.70;;;6.43;;
54575;SDS011;40472;53.486;14.542;2023-02-28T01:11:25;16.92;;;5.72;;
54575;SDS011;40472;53.486;14.542;2023-02-28T01:13:51;11.15;;;5.65;;
54575;SDS011;40472;53.486;14.542;2023-02-28T01:16:18;13.48;;;3.75;;
54575;SDS011;40472;53.486;14.542;2023-02-28T01:18:44;14.95;;;5.63;;
54575;SDS011;40472;53.486;14.542;2023-02-28T01:21:11;11.07;;;5.07;;
54575;SDS011;40472;53.486;14.542;2023-02-28T01:23:40;11.73;;;4.25;;
54575;SDS011;40472;53.486;14.542;2023-02-28T01:26:06;10.00;;;5.45;;
54575;SDS011;40472;53.486;14.542;2023-02-28T01:28:33;20.15;;;6.28;;
54575;SDS011;40472;53.486;14.542;2023-02-28T01:30:59;11.70;;;5.30;;
54575;SDS011;40472;53.486;14.542;2023-02-28T01:33:26;12.25;;;5.50;;
54575;SDS011;40472;53.486;14.542;2023-02-28T01:36:01;14.25;;;5.97;;
54575;SDS011;40472;53.486;14.542;2023-02-28T01:38:37;14.43;;;5.47;;
54575;SDS011;40472;53.486;14.542;2023-02-28T01:41:04;12.60;;;5.53;;
54575;SDS011;40472;53.486;14.542;2023-02-28T01:43:31;11.27;;;4.15;;
54575;SDS011;40472;53.486;14.542;2023-02-28T01:46:17;11.70;;;5.72;;
54575;SDS011;40472;53.486;14.542;2023-02-28T01:49:03;11.77;;;5.30;;
54575;SDS011;40472;53.486;14.542;2023-02-28T01:51:40;11.13;;;5.43;;
54575;SDS011;40472;53.486;14.542;2023-02-28T01:54:11;11.60;;;3.85;;
54575;SDS011;40472;53.486;14.542;2023-02-28T01:56:44;12.23;;;4.90;;
54575;SDS011;40472;53.486;14.542;2023-02-28T01:59:22;9.63;;;4.03;;
54575;SDS011;40472;53.486;14.542;2023-02-28T02:02:00;7.40;;;3.65;;
54575;SDS011;40472;53.486;14.542;2023-02-28T02:04:31;9.98;;;3.88;;
54575;SDS011;40472;53.486;14.542;2023-02-28T02:07:02;8.25;;;4.30;;
54575;SDS011;40472;53.486;14.542;2023-02-28T02:09:29;8.45;;;3.97;;
54575;SDS011;40472;53.486;14.542;2023-02-28T02:11:55;6.22;;;2.95;;
54575;SDS011;40472;53.486;14.542;2023-02-28T02:17:57;7.88;;;3.58;;
54575;SDS011;40472;53.486;14.542;2023-02-28T02:36:38;7.82;;;2.90;;
54575;SDS011;40472;53.486;14.542;2023-02-28T02:41:59;5.97;;;2.70;;
54575;SDS011;40472;53.486;14.542;2023-02-28T02:44:48;11.75;;;3.92;;
54575;SDS011;40472;53.486;14.542;2023-02-28T02:47:21;9.23;;;3.08;;
54575;SDS011;40472;53.486;14.542;2023-02-28T02:49:52;8.98;;;3.35;;
54575;SDS011;40472;53.486;14.542;2023-02-28T02:52:22;6.05;;;3.30;;
54575;SDS011;40472;53.486;14.542;2023-02-28T02:54:54;6.47;;;2.60;;
54575;SDS011;40472;53.486;14.542;2023-02-28T02:57:27;5.35;;;2.90;;
54575;SDS011;40472;53.486;14.542;2023-02-28T02:59:59;5.60;;;2.83;;
54575;SDS011;40472;53.486;14.542;2023-02-28T03:02:28;9.77;;;4.00;;
54575;SDS011;40472;53.486;14.542;2023-02-28T03:04:59;4.45;;;2.90;;
54575;SDS011;40472;53.486;14.542;2023-02-28T03:07:29;6.53;;;2.20;;
54575;SDS011;40472;53.486;14.542;2023-02-28T03:09:56;9.13;;;3.72;;
54575;SDS011;40472;53.486;14.542;2023-02-28T03:12:23;6.63;;;2.95;;
54575;SDS011;40472;53.486;14.542;2023-02-28T03:17:31;13.23;;;2.95;;
54575;SDS011;40472;53.486;14.542;2023-02-28T03:30:51;8.25;;;3.00;;
54575;SDS011;40472;53.486;14.542;2023-02-28T03:33:24;6.95;;;2.70;;
54575;SDS011;40472;53.486;14.542;2023-02-28T03:35:55;6.25;;;3.00;;
54575;SDS011;40472;53.486;14.542;2023-02-28T03:38:38;8.48;;;3.22;;
54575;SDS011;40472;53.486;14.542;2023-02-28T03:41:32;6.32;;;2.33;;
54575;SDS011;40472;53.486;14.542;2023-02-28T03:44:05;9.90;;;3.15;;
54575;SDS011;40472;53.486;14.542;2023-02-28T03:46:40;9.05;;;2.88;;
54575;SDS011;40472;53.486;14.542;2023-02-28T03:49:14;6.57;;;2.15;;
54575;SDS011;40472;53.486;14.542;2023-02-28T03:51:43;10.30;;;3.25;;
54575;SDS011;40472;53.486;14.542;2023-02-28T03:54:25;8.25;;;2.88;;
54575;SDS011;40472;53.486;14.542;2023-02-28T03:59:47;5.70;;;2.65;;
54575;SDS011;40472;53.486;14.542;2023-02-28T04:02:19;7.95;;;2.83;;
54575;SDS011;40472;53.486;14.542;2023-02-28T04:04:44;6.78;;;2.30;;
54575;SDS011;40472;53.486;14.542;2023-02-28T04:07:13;7.57;;;2.80;;
54575;SDS011;40472;53.486;14.542;2023-02-28T04:09:39;5.13;;;2.80;;
54575;SDS011;40472;53.486;14.542;2023-02-28T04:12:05;13.23;;;4.30;;
54575;SDS011;40472;53.486;14.542;2023-02-28T04:14:31;9.20;;;3.15;;
54575;SDS011;40472;53.486;14.542;2023-02-28T04:16:57;7.75;;;3.17;;
54575;SDS011;40472;53.486;14.542;2023-02-28T04:19:23;6.72;;;2.75;;
54575;SDS011;40472;53.486;14.542;2023-02-28T04:21:50;7.60;;;3.13;;
54575;SDS011;40472;53.486;14.542;2023-02-28T04:24:18;9.38;;;3.92;;
54575;SDS011;40472;53.486;14.542;2023-02-28T04:26:54;11.60;;;4.18;;
54575;SDS011;40472;53.486;14.542;2023-02-28T04:29:22;7.43;;;4.00;;
54575;SDS011;40472;53.486;14.542;2023-02-28T04:31:50;8.27;;;3.95;;
54575;SDS011;40472;53.486;14.542;2023-02-28T04:34:18;6.40;;;3.15;;
54575;SDS011;40472;53.486;14.542;2023-02-28T04:36:44;12.00;;;3.95;;
54575;SDS011;40472;53.486;14.542;2023-02-28T04:39:11;7.75;;;4.20;;
54575;SDS011;40472;53.486;14.542;2023-02-28T04:41:37;10.35;;;4.38;;
54575;SDS011;40472;53.486;14.542;2023-02-28T04:44:03;11.63;;;3.85;;
54575;SDS011;40472;53.486;14.542;2023-02-28T04:46:29;9.15;;;4.13;;
54575;SDS011;40472;53.486;14.542;2023-02-28T04:48:55;8.57;;;4.43;;
54575;SDS011;40472;53.486;14.542;2023-02-28T04:51:21;10.23;;;4.90;;
54575;SDS011;40472;53.486;14.542;2023-02-28T04:53:47;14.07;;;5.97;;
54575;SDS011;40472;53.486;14.542;2023-02-28T04:56:15;13.55;;;5.30;;
54575;SDS011;40472;53.486;14.542;2023-02-28T04:58:42;10.32;;;5.63;;
54575;SDS011;40472;53.486;14.542;2023-02-28T05:01:18;12.70;;;5.95;;
54575;SDS011;40472;53.486;14.542;2023-02-28T05:03:44;13.07;;;6.22;;
54575;SDS011;40472;53.486;14.542;2023-02-28T05:06:11;15.27;;;6.70;;
54575;SDS011;40472;53.486;14.542;2023-02-28T05:08:38;14.40;;;7.00;;
54575;SDS011;40472;53.486;14.542;2023-02-28T05:11:06;14.63;;;5.15;;
54575;SDS011;40472;53.486;14.542;2023-02-28T05:13:37;11.05;;;5.38;;
54575;SDS011;40472;53.486;14.542;2023-02-28T05:16:02;17.00;;;5.90;;
54575;SDS011;40472;53.486;14.542;2023-02-28T05:18:28;16.73;;;7.72;;
54575;SDS011;40472;53.486;14.542;2023-02-28T05:20:54;9.60;;;4.45;;
54575;SDS011;40472;53.486;14.542;2023-02-28T05:23:19;11.88;;;5.82;;
54575;SDS011;40472;53.486;14.542;2023-02-28T05:25:47;12.85;;;6.20;;
54575;SDS011;40472;53.486;14.542;2023-02-28T05:28:13;11.02;;;5.55;;
54575;SDS011;40472;53.486;14.542;2023-02-28T05:30:39;19.38;;;5.85;;
54575;SDS011;40472;53.486;14.542;2023-02-28T05:33:05;11.60;;;5.05;;
54575;SDS011;40472;53.486;14.542;2023-02-28T05:35:31;8.57;;;5.03;;
54575;SDS011;40472;53.486;14.542;2023-02-28T05:37:57;18.63;;;6.55;;
54575;SDS011;40472;53.486;14.542;2023-02-28T05:40:28;10.77;;;5.35;;
54575;SDS011;40472;53.486;14.542;2023-02-28T05:42:54;13.85;;;5.65;;
54575;SDS011;40472;53.486;14.542;2023-02-28T05:45:20;17.67;;;5.93;;
54575;SDS011;40472;53.486;14.542;2023-02-28T05:47:45;15.25;;;6.13;;
54575;SDS011;40472;53.486;14.542;2023-02-28T05:50:11;10.48;;;5.32;;
54575;SDS011;40472;53.486;14.542;2023-02-28T05:52:37;12.20;;;5.47;;
54575;SDS011;40472;53.486;14.542;2023-02-28T05:55:03;11.40;;;4.57;;
54575;SDS011;40472;53.486;14.542;2023-02-28T05:57:29;8.23;;;4.82;;
54575;SDS011;40472;53.486;14.542;2023-02-28T05:59:55;9.50;;;4.70;;
54575;SDS011;40472;53.486;14.542;2023-02-28T06:02:20;14.20;;;5.63;;
54575;SDS011;40472;53.486;14.542;2023-02-28T06:04:46;15.20;;;4.82;;
54575;SDS011;40472;53.486;14.542;2023-02-28T06:07:12;13.90;;;5.10;;
54575;SDS011;40472;53.486;14.542;2023-02-28T06:09:37;14.77;;;5.32;;
54575;SDS011;40472;53.486;14.542;2023-02-28T06:12:04;14.65;;;6.25;;
54575;SDS011;40472;53.486;14.542;2023-02-28T06:14:32;13.95;;;6.22;;
54575;SDS011;40472;53.486;14.542;2023-02-28T06:16:59;11.60;;;6.20;;
54575;SDS011;40472;53.486;14.542;2023-02-28T06:19:25;14.18;;;6.47;;
54575;SDS011;40472;53.486;14.542;2023-02-28T06:21:52;14.52;;;6.65;;
54575;SDS011;40472;53.486;14.542;2023-02-28T06:24:18;15.80;;;6.88;;
54575;SDS011;40472;53.486;14.542;2023-02-28T06:26:45;15.88;;;6.28;;
54575;SDS011;40472;53.486;14.542;2023-02-28T06:29:11;14.85;;;7.15;;
54575;SDS011;40472;53.486;14.542;2023-02-28T06:31:37;13.80;;;6.75;;
54575;SDS011;40472;53.486;14.542;2023-02-28T06:34:03;18.15;;;6.93;;
54575;SDS011;40472;53.486;14.542;2023-02-28T06:36:29;20.88;;;7.50;;
54575;SDS011;40472;53.486;14.542;2023-02-28T06:38:55;19.15;;;7.18;;
54575;SDS011;40472;53.486;14.542;2023-02-28T06:41:22;19.75;;;8.43;;
54575;SDS011;40472;53.486;14.542;2023-02-28T06:43:51;18.35;;;9.00;;
54575;SDS011;40472;53.486;14.542;2023-02-28T06:46:18;19.42;;;9.38;;
54575;SDS011;40472;53.486;14.542;2023-02-28T06:48:44;19.25;;;9.38;;
54575;SDS011;40472;53.486;14.542;2023-02-28T06:51:16;26.25;;;10.45;;
54575;SDS011;40472;53.486;14.542;2023-02-28T06:53:45;19.63;;;9.75;;
54575;SDS011;40472;53.486;14.542;2023-02-28T06:56:12;17.88;;;9.38;;
54575;SDS011;40472;53.486;14.542;2023-02-28T06:58:39;22.02;;;9.70;;
54575;SDS011;40472;53.486;14.542;2023-02-28T07:01:05;20.52;;;9.45;;
54575;SDS011;40472;53.486;14.542;2023-02-28T07:03:32;21.13;;;10.25;;
54575;SDS011;40472;53.486;14.542;2023-02-28T07:05:57;20.85;;;9.65;;
54575;SDS011;40472;53.486;14.542;2023-02-28T07:08:24;16.38;;;7.88;;
54575;SDS011;40472;53.486;14.542;2023-02-28T07:10:54;16.10;;;7.57;;
54575;SDS011;40472;53.486;14.542;2023-02-28T07:13:21;18.67;;;7.80;;
54575;SDS011;40472;53.486;14.542;2023-02-28T07:15:58;14.05;;;6.00;;
54575;SDS011;40472;53.486;14.542;2023-02-28T07:18:25;24.92;;;9.18;;
54575;SDS011;40472;53.486;14.542;2023-02-28T07:20:52;14.57;;;6.95;;
54575;SDS011;40472;53.486;14.542;2023-02-28T07:23:18;14.30;;;6.25;;
54575;SDS011;40472;53.486;14.542;2023-02-28T07:25:43;18.63;;;6.00;;
54575;SDS011;40472;53.486;14.542;2023-02-28T07:28:10;14.90;;;4.75;;
54575;SDS011;40472;53.486;14.542;2023-02-28T07:30:37;14.40;;;4.72;;
54575;SDS011;40472;53.486;14.542;2023-02-28T07:33:02;12.85;;;5.05;;
54575;SDS011;40472;53.486;14.542;2023-02-28T07:35:28;11.15;;;5.05;;
54575;SDS011;40472;53.486;14.542;2023-02-28T07:37:55;10.10;;;4.82;;
54575;SDS011;40472;53.486;14.542;2023-02-28T07:40:23;13.13;;;5.40;;
54575;SDS011;40472;53.486;14.542;2023-02-28T07:42:49;14.82;;;5.45;;
54575;SDS011;40472;53.486;14.542;2023-02-28T07:45:14;11.27;;;4.57;;
54575;SDS011;40472;53.486;14.542;2023-02-28T07:47:41;11.25;;;5.25;;
54575;SDS011;40472;53.486;14.542;2023-02-28T07:50:08;15.20;;;4.53;;
54575;SDS011;40472;53.486;14.542;2023-02-28T07:52:38;11.10;;;4.78;;
54575;SDS011;40472;53.486;14.542;2023-02-28T07:55:05;9.55;;;4.28;;
54575;SDS011;40472;53.486;14.542;2023-02-28T07:57:32;8.98;;;4.55;;
54575;SDS011;40472;53.486;14.542;2023-02-28T07:59:58;10.88;;;3.80;;
54575;SDS011;40472;53.486;14.542;2023-02-28T08:02:24;12.07;;;4.32;;
54575;SDS011;40472;53.486;14.542;2023-02-28T08:04:49;8.65;;;3.75;;
54575;SDS011;40472;53.486;14.542;2023-02-28T08:07:16;11.25;;;4.30;;
54575;SDS011;40472;53.486;14.542;2023-02-28T08:09:43;17.30;;;4.97;;
54575;SDS011;40472;53.486;14.542;2023-02-28T08:12:09;16.98;;;5.47;;
54575;SDS011;40472;53.486;14.542;2023-02-28T08:14:36;9.07;;;3.63;;
54575;SDS011;40472;53.486;14.542;2023-02-28T08:17:02;11.65;;;5.68;;
54575;SDS011;40472;53.486;14.542;2023-02-28T08:19:28;10.75;;;4.60;;
54575;SDS011;40472;53.486;14.542;2023-02-28T08:21:55;8.65;;;4.32;;
54575;SDS011;40472;53.486;14.542;2023-02-28T08:24:21;10.50;;;4.70;;
54575;SDS011;40472;53.486;14.542;2023-02-28T08:26:47;6.95;;;2.90;;
54575;SDS011;40472;53.486;14.542;2023-02-28T08:29:13;8.15;;;3.70;;
54575;SDS011;40472;53.486;14.542;2023-02-28T08:31:39;16.33;;;5.82;;
54575;SDS011;40472;53.486;14.542;2023-02-28T08:34:09;13.27;;;5.85;;
54575;SDS011;40472;53.486;14.542;2023-02-28T08:36:36;12.25;;;5.32;;
54575;SDS011;40472;53.486;14.542;2023-02-28T08:39:02;12.85;;;5.47;;
54575;SDS011;40472;53.486;14.542;2023-02-28T08:41:28;19.42;;;6.97;;
54575;SDS011;40472;53.486;14.542;2023-02-28T08:43:54;19.10;;;7.70;;
54575;SDS011;40472;53.486;14.542;2023-02-28T08:46:20;17.50;;;7.90;;
54575;SDS011;40472;53.486;14.542;2023-02-28T08:48:46;10.65;;;5.25;;
54575;SDS011;40472;53.486;14.542;2023-02-28T08:51:16;19.75;;;7.80;;
54575;SDS011;40472;53.486;14.542;2023-02-28T08:53:51;22.08;;;8.80;;
54575;SDS011;40472;53.486;14.542;2023-02-28T08:56:22;18.23;;;7.55;;
54575;SDS011;40472;53.486;14.542;2023-02-28T08:58:49;21.30;;;6.70;;
54575;SDS011;40472;53.486;14.542;2023-02-28T09:01:16;21.17;;;8.02;;
54575;SDS011;40472;53.486;14.542;2023-02-28T09:03:47;16.27;;;6.32;;
54575;SDS011;40472;53.486;14.542;2023-02-28T09:06:14;20.55;;;7.75;;
54575;SDS011;40472;53.486;14.542;2023-02-28T09:08:41;12.85;;;5.38;;
54575;SDS011;40472;53.486;14.542;2023-02-28T09:11:08;20.88;;;7.55;;
54575;SDS011;40472;53.486;14.542;2023-02-28T09:13:34;14.02;;;6.88;;
54575;SDS011;40472;53.486;14.542;2023-02-28T09:16:01;8.77;;;4.70;;
54575;SDS011;40472;53.486;14.542;2023-02-28T09:18:28;12.10;;;6.13;;
54575;SDS011;40472;53.486;14.542;2023-02-28T09:20:54;15.40;;;6.63;;
54575;SDS011;40472;53.486;14.542;2023-02-28T09:23:21;20.08;;;6.22;;
54575;SDS011;40472;53.486;14.542;2023-02-28T09:25:51;13.70;;;4.28;;
54575;SDS011;40472;53.486;14.542;2023-02-28T09:28:18;10.07;;;3.30;;
54575;SDS011;40472;53.486;14.542;2023-02-28T09:30:45;7.90;;;3.42;;
54575;SDS011;40472;53.486;14.542;2023-02-28T09:33:13;13.30;;;3.72;;
54575;SDS011;40472;53.486;14.542;2023-02-28T09:35:40;5.70;;;3.08;;
54575;SDS011;40472;53.486;14.542;2023-02-28T09:38:06;9.90;;;3.13;;
54575;SDS011;40472;53.486;14.542;2023-02-28T09:40:35;3.28;;;1.65;;
54575;SDS011;40472;53.486;14.542;2023-02-28T09:43:09;6.15;;;2.22;;
54575;SDS011;40472;53.486;14.542;2023-02-28T09:45:39;10.27;;;4.60;;
54575;SDS011;40472;53.486;14.542;2023-02-28T09:48:15;9.70;;;4.35;;
54575;SDS011;40472;53.486;14.542;2023-02-28T09:50:50;14.60;;;4.78;;
54575;SDS011;40472;53.486;14.542;2023-02-28T09:55:53;10.77;;;5.45;;
54575;SDS011;40472;53.486;14.542;2023-02-28T10:06:32;11.02;;;5.25;;
54575;SDS011;40472;53.486;14.542;2023-02-28T10:09:18;18.40;;;5.65;;
54575;SDS011;40472;53.486;14.542;2023-02-28T10:14:21;11.10;;;4.40;;
54575;SDS011;40472;53.486;14.542;2023-02-28T10:16:50;11.95;;;5.13;;
54575;SDS011;40472;53.486;14.542;2023-02-28T10:19:28;8.40;;;4.22;;
54575;SDS011;40472;53.486;14.542;2023-02-28T10:22:17;8.93;;;4.72;;
54575;SDS011;40472;53.486;14.542;2023-02-28T10:24:54;25.27;;;6.00;;
54575;SDS011;40472;53.486;14.542;2023-02-28T10:27:29;11.23;;;4.25;;
54575;SDS011;40472;53.486;14.542;2023-02-28T10:29:57;19.45;;;5.72;;
54575;SDS011;40472;53.486;14.542;2023-02-28T10:32:27;18.88;;;6.63;;
54575;SDS011;40472;53.486;14.542;2023-02-28T10:37:32;14.47;;;5.90;;
54575;SDS011;40472;53.486;14.542;2023-02-28T10:40:03;12.10;;;5.65;;
54575;SDS011;40472;53.486;14.542;2023-02-28T10:42:56;8.75;;;4.18;;
54575;SDS011;40472;53.486;14.542;2023-02-28T10:45:30;18.30;;;5.68;;
54575;SDS011;40472;53.486;14.542;2023-02-28T11:01:39;6.95;;;2.53;;
54575;SDS011;40472;53.486;14.542;2023-02-28T11:06:48;15.50;;;5.47;;
54575;SDS011;40472;53.486;14.542;2023-02-28T11:12:17;8.43;;;3.20;;
54575;SDS011;40472;53.486;14.542;2023-02-28T11:14:58;3.55;;;2.55;;
54575;SDS011;40472;53.486;14.542;2023-02-28T11:17:28;9.07;;;4.50;;
54575;SDS011;40472;53.486;14.542;2023-02-28T11:20:01;10.93;;;4.63;;
54575;SDS011;40472;53.486;14.542;2023-02-28T11:22:32;8.43;;;4.60;;
54575;SDS011;40472;53.486;14.542;2023-02-28T11:25:19;13.75;;;5.78;;
54575;SDS011;40472;53.486;14.542;2023-02-28T11:27:59;14.85;;;5.68;;
54575;SDS011;40472;53.486;14.542;2023-02-28T11:30:37;12.57;;;5.75;;
54575;SDS011;40472;53.486;14.542;2023-02-28T11:36:28;11.82;;;5.43;;
54575;SDS011;40472;53.486;14.542;2023-02-28T11:38:59;10.32;;;4.70;;
54575;SDS011;40472;53.486;14.542;2023-02-28T11:47:17;9.70;;;4.13;;
54575;SDS011;40472;53.486;14.542;2023-02-28T11:52:56;15.85;;;3.97;;
54575;SDS011;40472;53.486;14.542;2023-02-28T11:55:33;8.48;;;3.80;;
54575;SDS011;40472;53.486;14.542;2023-02-28T12:06:50;7.60;;;3.92;;
54575;SDS011;40472;53.486;14.542;2023-02-28T12:09:34;13.80;;;5.22;;
54575;SDS011;40472;53.486;14.542;2023-02-28T12:21:01;8.05;;;3.45;;
54575;SDS011;40472;53.486;14.542;2023-02-28T12:27:05;5.57;;;2.85;;
54575;SDS011;40472;53.486;14.542;2023-02-28T12:32:26;4.40;;;2.13;;
54575;SDS011;40472;53.486;14.542;2023-02-28T12:35:01;14.45;;;3.90;;
54575;SDS011;40472;53.486;14.542;2023-02-28T12:37:41;8.38;;;3.72;;
54575;SDS011;40472;53.486;14.542;2023-02-28T12:40:13;8.75;;;4.13;;
54575;SDS011;40472;53.486;14.542;2023-02-28T12:42:51;12.25;;;3.95;;
54575;SDS011;40472;53.486;14.542;2023-02-28T12:45:29;8.07;;;3.58;;
54575;SDS011;40472;53.486;14.542;2023-02-28T12:48:24;6.75;;;3.45;;
54575;SDS011;40472;53.486;14.542;2023-02-28T12:51:11;10.30;;;3.60;;
54575;SDS011;40472;53.486;14.542;2023-02-28T12:56:16;7.68;;;3.78;;
54575;SDS011;40472;53.486;14.542;2023-02-28T13:10:22;12.32;;;5.28;;
54575;SDS011;40472;53.486;14.542;2023-02-28T13:12:49;12.25;;;4.45;;
54575;SDS011;40472;53.486;14.542;2023-02-28T13:15:19;11.25;;;4.15;;
54575;SDS011;40472;53.486;14.542;2023-02-28T13:17:50;12.80;;;5.15;;
54575;SDS011;40472;53.486;14.542;2023-02-28T13:20:51;12.52;;;5.20;;
54575;SDS011;40472;53.486;14.542;2023-02-28T13:34:31;4.63;;;2.10;;
54575;SDS011;40472;53.486;14.542;2023-02-28T13:37:41;6.72;;;3.60;;
54575;SDS011;40472;53.486;14.542;2023-02-28T13:50:29;6.13;;;2.97;;
54575;SDS011;40472;53.486;14.542;2023-02-28T14:06:53;6.57;;;2.42;;
54575;SDS011;40472;53.486;14.542;2023-02-28T14:15:38;5.70;;;2.65;;
54575;SDS011;40472;53.486;14.542;2023-02-28T14:18:11;6.80;;;2.60;;
54575;SDS011;40472;53.486;14.542;2023-02-28T14:20:42;7.20;;;2.42;;
54575;SDS011;40472;53.486;14.542;2023-02-28T14:31:15;9.43;;;4.22;;
54575;SDS011;40472;53.486;14.542;2023-02-28T14:33:57;13.80;;;5.05;;
54575;SDS011;40472;53.486;14.542;2023-02-28T14:36:43;15.70;;;4.85;;
54575;SDS011;40472;53.486;14.542;2023-02-28T14:41:40;15.40;;;5.22;;
54575;SDS011;40472;53.486;14.542;2023-02-28T14:44:19;10.70;;;4.82;;
54575;SDS011;40472;53.486;14.542;2023-02-28T14:46:50;12.82;;;4.05;;
54575;SDS011;40472;53.486;14.542;2023-02-28T14:49:27;10.27;;;4.50;;
54575;SDS011;40472;53.486;14.542;2023-02-28T14:52:27;9.57;;;3.72;;
54575;SDS011;40472;53.486;14.542;2023-02-28T14:54:54;9.15;;;4.13;;
54575;SDS011;40472;53.486;14.542;2023-02-28T14:57:27;13.77;;;5.00;;
54575;SDS011;40472;53.486;14.542;2023-02-28T15:02:48;12.40;;;4.18;;
54575;SDS011;40472;53.486;14.542;2023-02-28T15:07:42;12.98;;;3.25;;
54575;SDS011;40472;53.486;14.542;2023-02-28T15:12:49;5.75;;;2.83;;
54575;SDS011;40472;53.486;14.542;2023-02-28T15:15:21;1.83;;;1.20;;
54575;SDS011;40472;53.486;14.542;2023-02-28T15:17:55;7.22;;;2.20;;
54575;SDS011;40472;53.486;14.542;2023-02-28T15:20:24;8.75;;;2.13;;
54575;SDS011;40472;53.486;14.542;2023-02-28T15:22:50;5.47;;;1.65;;
54575;SDS011;40472;53.486;14.542;2023-02-28T15:25:20;4.40;;;1.88;;
54575;SDS011;40472;53.486;14.542;2023-02-28T15:27:52;2.85;;;1.20;;
54575;SDS011;40472;53.486;14.542;2023-02-28T15:30:27;10.93;;;1.48;;
54575;SDS011;40472;53.486;14.542;2023-02-28T15:33:01;5.55;;;1.63;;
54575;SDS011;40472;53.486;14.542;2023-02-28T15:35:31;4.47;;;1.38;;
54575;SDS011;40472;53.486;14.542;2023-02-28T15:38:03;4.38;;;1.70;;
54575;SDS011;40472;53.486;14.542;2023-02-28T15:40:44;11.00;;;1.65;;
54575;SDS011;40472;53.486;14.542;2023-02-28T15:43:32;4.35;;;0.98;;
54575;SDS011;40472;53.486;14.542;2023-02-28T15:46:11;2.58;;;1.27;;
54575;SDS011;40472;53.486;14.542;2023-02-28T15:48:43;2.83;;;1.50;;
54575;SDS011;40472;53.486;14.542;2023-02-28T15:51:20;3.90;;;1.15;;
54575;SDS011;40472;53.486;14.542;2023-02-28T15:54:00;11.77;;;1.88;;
54575;SDS011;40472;53.486;14.542;2023-02-28T15:56:33;4.35;;;1.52;;
54575;SDS011;40472;53.486;14.542;2023-02-28T15:59:07;2.92;;;1.13;;
54575;SDS011;40472;53.486;14.542;2023-02-28T16:04:28;5.53;;;1.55;;
54575;SDS011;40472;53.486;14.542;2023-02-28T16:09:26;4.30;;;1.25;;
54575;SDS011;40472;53.486;14.542;2023-02-28T16:11:54;8.60;;;1.52;;
54575;SDS011;40472;53.486;14.542;2023-02-28T16:14:23;3.60;;;0.95;;
54575;SDS011;40472;53.486;14.542;2023-02-28T16:16:53;9.75;;;2.03;;
54575;SDS011;40472;53.486;14.542;2023-02-28T16:19:21;12.32;;;1.83;;
54575;SDS011;40472;53.486;14.542;2023-02-28T16:21:48;5.53;;;1.13;;
54575;SDS011;40472;53.486;14.542;2023-02-28T16:24:14;4.60;;;1.52;;
54575;SDS011;40472;53.486;14.542;2023-02-28T16:26:40;7.68;;;1.70;;
54575;SDS011;40472;53.486;14.542;2023-02-28T16:29:12;5.60;;;1.65;;
54575;SDS011;40472;53.486;14.542;2023-02-28T16:31:42;3.70;;;1.38;;
54575;SDS011;40472;53.486;14.542;2023-02-28T16:34:08;7.75;;;1.80;;
54575;SDS011;40472;53.486;14.542;2023-02-28T16:36:34;5.75;;;1.48;;
54575;SDS011;40472;53.486;14.542;2023-02-28T16:39:00;6.13;;;1.67;;
54575;SDS011;40472;53.486;14.542;2023-02-28T16:41:27;4.75;;;1.92;;
54575;SDS011;40472;53.486;14.542;2023-02-28T16:43:54;2.70;;;1.58;;
54575;SDS011;40472;53.486;14.542;2023-02-28T16:46:24;12.45;;;1.95;;
54575;SDS011;40472;53.486;14.542;2023-02-28T16:48:58;9.63;;;2.10;;
54575;SDS011;40472;53.486;14.542;2023-02-28T16:51:25;5.63;;;2.28;;
54575;SDS011;40472;53.486;14.542;2023-02-28T16:53:51;3.78;;;1.55;;
54575;SDS011;40472;53.486;14.542;2023-02-28T16:56:19;15.82;;;2.25;;
54575;SDS011;40472;53.486;14.542;2023-02-28T16:58:48;10.93;;;2.97;;
54575;SDS011;40472;53.486;14.542;2023-02-28T17:01:15;7.15;;;2.88;;
54575;SDS011;40472;53.486;14.542;2023-02-28T17:03:42;12.82;;;3.53;;
54575;SDS011;40472;53.486;14.542;2023-02-28T17:06:15;11.45;;;3.20;;
54575;SDS011;40472;53.486;14.542;2023-02-28T17:08:44;16.52;;;3.80;;
54575;SDS011;40472;53.486;14.542;2023-02-28T17:11:10;10.55;;;3.58;;
54575;SDS011;40472;53.486;14.542;2023-02-28T17:13:35;10.77;;;3.50;;
54575;SDS011;40472;53.486;14.542;2023-02-28T17:16:01;10.38;;;3.00;;
54575;SDS011;40472;53.486;14.542;2023-02-28T17:18:27;5.85;;;2.30;;
54575;SDS011;40472;53.486;14.542;2023-02-28T17:20:58;12.52;;;3.63;;
54575;SDS011;40472;53.486;14.542;2023-02-28T17:23:25;12.75;;;4.65;;
54575;SDS011;40472;53.486;14.542;2023-02-28T17:25:51;8.73;;;3.08;;
54575;SDS011;40472;53.486;14.542;2023-02-28T17:28:22;8.95;;;3.15;;
54575;SDS011;40472;53.486;14.542;2023-02-28T17:30:48;9.13;;;3.72;;
54575;SDS011;40472;53.486;14.542;2023-02-28T17:33:15;10.40;;;3.60;;
54575;SDS011;40472;53.486;14.542;2023-02-28T17:35:40;12.98;;;2.75;;
54575;SDS011;40472;53.486;14.542;2023-02-28T17:38:13;4.20;;;2.35;;
54575;SDS011;40472;53.486;14.542;2023-02-28T17:40:42;11.43;;;3.47;;
54575;SDS011;40472;53.486;14.542;2023-02-28T17:43:08;12.77;;;2.30;;
54575;SDS011;40472;53.486;14.542;2023-02-28T17:45:34;9.23;;;3.00;;
54575;SDS011;40472;53.486;14.542;2023-02-28T17:48:01;14.55;;;2.90;;
54575;SDS011;40472;53.486;14.542;2023-02-28T17:50:28;9.88;;;2.70;;